METAR AND TAF INFORMATION
METAR FOR LTAU
ADDS - METARS form results

(1631 UTC 23 February 2019)
Data provider http://aviationweather.gov/metar/data/
 
METAR text: LTAU 231620Z 02006KT 9999 SCT040 BKN080 08/M01 Q1020 NOSIG
Conditions at: LTAU (KAYSERI/ERKILET , TR) observed 1620 UTC 23 February 2019
Temperature: 8.0°C (46°F)
Dewpoint: -1.0°C (30°F) [RH = 53%]
Pressure (altimeter): 30.12 inches Hg (1020.0 mb)
Winds: from the NNE (20 degrees) at 7 MPH (6 knots; 3.1 m/s)
Visibility: 6 or more miles (10+ km)
Ceiling: 8000 feet AGL
Clouds: scattered clouds at 4000 feet AGL
broken clouds at 8000 feet AGL
Weather: no significant weather observed at this time

METAR text: LTAU 231550Z 33008KT 9999 SCT040 BKN090 09/M02 Q1019 NOSIG RMK RWY07 29008KT
Conditions at: LTAU (KAYSERI/ERKILET , TR) observed 1550 UTC 23 February 2019
Temperature: 9.0°C (48°F)
Dewpoint: -2.0°C (28°F) [RH = 46%]
Pressure (altimeter): 30.09 inches Hg (1019.0 mb)
Winds: from the NNW (330 degrees) at 9 MPH (8 knots; 4.1 m/s)
Visibility: 6 or more miles (10+ km)
Ceiling: 9000 feet AGL
Clouds: scattered clouds at 4000 feet AGL
broken clouds at 9000 feet AGL
Weather: no significant weather observed at this time

Forecast for: LTAU (KAYSERI/ERKILET , TR)
Text: TAF LTAU 231040Z 2312/2412 VRB02KT 9999 SCT040 BKN100
Forecast period: 1200 UTC 23 February 2019 to 1200 UTC 24 February 2019
Forecast type: FROM: standard forecast or significant change
Winds: variable direction winds at 2 MPH (2 knots; 1.0 m/s)
Visibility: 6 or more miles 10+ km)
Ceiling: 10000 feet AGL
Clouds: scattered clouds at 4000 feet AGL
broken clouds at 10000 feet AGL
Weather: no significant weather forecast for this period

 AIRPORT MAP

 RUNWAY INFORMATION
Runway 07 Runway length 9841 ft Runway width 145 ft
Runway elevation 3449 ft Runway displaced threshold 0 ft Runway heading 76
Runway 25 Runway length 9841 ft Runway width 145 ft
Runway elevation 3463 ft Runway displaced threshold 0 ft Runway heading 256

 AIRPORT FREQUENCIES
Type APP Name APP Frequency 122.1 MHZ
Type GND Name GND Frequency 121.95 MHZ
Type TWR Name TWR Frequency 122.1 MHZ

 AIRPORT NEAR NAVIGATION AIDS
Type TACAN Name Kayseri Frequency 116900 KHZ
Type VOR-DME Name Kayseri Frequency 116300 KHZ



Copyright © 2011 - 2018 BirgenAir Virtual Airlines. All rights reserved. Developed by Goktug Unver